Time;durP1;ratioP1;P1;durP2;ratioP2;P2;SDS_P1;SDS_P2;PMS_P1;PMS_P2;Temp;Humidity;BMP_temperature;BMP_pressure;BME280_temperature;BME280_humidity;BME280_pressure;Samples;Min_cycle;Max_cycle;Signal;HPM_P1;HPM_P2
2024/03/15 00:02:18;;;;;;;5.83;3.60;;;;;;;;;;5075479;28;20604;-88
2024/03/15 00:04:45;;;;;;;4.23;3.00;;;;;;;;;;5074986;28;20208;-88
2024/03/15 00:07:13;;;;;;;5.10;3.30;;;;;;;;;;5075252;28;20222;-87
2024/03/15 00:09:40;;;;;;;4.53;2.73;;;;;;;;;;5075536;28;20190;-87
2024/03/15 00:12:08;;;;;;;4.37;2.63;;;;;;;;;;5073761;28;20286;-87
2024/03/15 00:14:35;;;;;;;4.43;2.53;;;;;;;;;;5054583;28;20652;-88
2024/03/15 00:17:03;;;;;;;4.13;2.50;;;;;;;;;;5055594;28;20195;-88
2024/03/15 00:19:30;;;;;;;4.13;2.43;;;;;;;;;;5055025;28;20632;-87
2024/03/15 00:21:58;;;;;;;4.37;2.37;;;;;;;;;;5055425;28;20282;-88
2024/03/15 00:24:25;;;;;;;5.23;2.50;;;;;;;;;;5055358;28;20195;-88
2024/03/15 00:26:52;;;;;;;4.83;2.60;;;;;;;;;;5054936;28;20203;-88
2024/03/15 00:29:20;;;;;;;3.80;2.20;;;;;;;;;;5055283;28;20788;-88
2024/03/15 00:31:47;;;;;;;2.93;2.30;;;;;;;;;;5055564;28;20244;-87
2024/03/15 00:34:14;;;;;;;2.87;2.60;;;;;;;;;;5054793;28;20638;-87
2024/03/15 00:36:42;;;;;;;3.40;2.30;;;;;;;;;;5054966;28;20214;-87
2024/03/15 00:39:11;;;;;;;4.53;2.20;;;;;;;;;;5038783;28;20378;-88
2024/03/15 00:41:38;;;;;;;5.23;2.33;;;;;;;;;;5075078;28;20660;-88
2024/03/15 00:44:06;;;;;;;5.33;2.00;;;;;;;;;;5075012;28;20637;-89
2024/03/15 00:46:34;;;;;;;3.17;2.03;;;;;;;;;;5075088;28;20315;-88
2024/03/15 00:49:01;;;;;;;3.63;2.03;;;;;;;;;;5074689;28;20190;-87
2024/03/15 00:51:29;;;;;;;3.53;2.03;;;;;;;;;;5074912;28;20285;-88
2024/03/15 00:53:56;;;;;;;3.93;2.00;;;;;;;;;;5074829;28;20639;-87
2024/03/15 00:56:23;;;;;;;3.93;1.97;;;;;;;;;;5074597;28;20309;-87
2024/03/15 00:58:52;;;;;;;6.00;2.40;;;;;;;;;;5074808;28;20290;-87
2024/03/15 01:01:19;;;;;;;6.00;2.47;;;;;;;;;;5075106;28;20577;-88
2024/03/15 01:03:47;;;;;;;8.63;2.20;;;;;;;;;;5074924;28;20623;-89
2024/03/15 01:06:14;;;;;;;4.63;1.80;;;;;;;;;;5075480;28;20234;-87
2024/03/15 01:08:42;;;;;;;6.57;1.80;;;;;;;;;;5075094;28;20194;-88
2024/03/15 01:11:09;;;;;;;6.77;2.17;;;;;;;;;;5074723;28;20704;-88
2024/03/15 01:13:36;;;;;;;6.87;2.17;;;;;;;;;;5088588;28;20240;-87
2024/03/15 01:16:05;;;;;;;8.37;2.43;;;;;;;;;;5094715;28;20313;-88
2024/03/15 01:18:33;;;;;;;7.60;2.60;;;;;;;;;;5094659;28;20194;-88
2024/03/15 01:21:01;;;;;;;7.77;2.33;;;;;;;;;;5094865;28;20198;-88
2024/03/15 01:23:29;;;;;;;11.10;2.57;;;;;;;;;;5095093;28;20194;-88
2024/03/15 01:25:57;;;;;;;10.47;2.60;;;;;;;;;;5098727;28;20197;-87
2024/03/15 01:28:25;;;;;;;6.10;2.37;;;;;;;;;;5098274;28;20202;-87
2024/03/15 01:30:52;;;;;;;8.67;2.10;;;;;;;;;;5098614;28;20217;-88
2024/03/15 01:33:20;;;;;;;9.50;2.50;;;;;;;;;;5098003;28;20644;-88
2024/03/15 01:35:47;;;;;;;12.60;2.67;;;;;;;;;;5098838;28;20225;-88
2024/03/15 01:38:15;;;;;;;13.93;2.50;;;;;;;;;;5098545;28;20687;-87
2024/03/15 01:40:42;;;;;;;11.27;2.60;;;;;;;;;;5098011;28;20197;-88
2024/03/15 01:43:12;;;;;;;11.33;2.63;;;;;;;;;;5098327;28;20201;-87
2024/03/15 01:45:40;;;;;;;7.50;2.10;;;;;;;;;;5098557;28;20251;-87
2024/03/15 01:48:08;;;;;;;9.87;2.30;;;;;;;;;;5098182;28;20269;-88
2024/03/15 01:50:36;;;;;;;11.60;2.57;;;;;;;;;;5098237;28;20624;-88
2024/03/15 01:53:04;;;;;;;9.40;2.43;;;;;;;;;;5098764;28;20222;-88
2024/03/15 01:55:33;;;;;;;9.50;2.40;;;;;;;;;;5097707;28;20617;-88
2024/03/15 01:58:00;;;;;;;15.73;2.77;;;;;;;;;;5098362;28;20200;-89
2024/03/15 02:00:28;;;;;;;10.37;2.47;;;;;;;;;;5097556;28;20200;-88
2024/03/15 02:02:56;;;;;;;12.83;2.67;;;;;;;;;;5098166;28;20277;-88
2024/03/15 02:05:23;;;;;;;14.77;2.60;;;;;;;;;;5098190;28;20201;-88
2024/03/15 02:07:51;;;;;;;13.07;2.43;;;;;;;;;;5097785;28;20281;-88
2024/03/15 02:10:20;;;;;;;12.87;2.73;;;;;;;;;;5098279;28;20197;-88
2024/03/15 02:12:49;;;;;;;17.93;2.97;;;;;;;;;;5090637;28;20625;-88
2024/03/15 02:15:16;;;;;;;10.27;2.50;;;;;;;;;;5077361;28;20600;-88
2024/03/15 02:17:43;;;;;;;14.33;2.93;;;;;;;;;;5077263;28;20715;-87
2024/03/15 02:20:12;;;;;;;15.43;3.03;;;;;;;;;;5077481;28;20226;-87
2024/03/15 02:22:44;;;;;;;17.67;3.00;;;;;;;;;;5077710;28;20202;-88
2024/03/15 02:25:12;;;;;;;16.03;2.63;;;;;;;;;;5077995;28;20195;-89
2024/03/15 02:27:39;;;;;;;14.50;2.87;;;;;;;;;;5078094;28;20194;-88
2024/03/15 02:30:07;;;;;;;14.00;2.50;;;;;;;;;;5076979;28;20286;-88
2024/03/15 02:32:35;;;;;;;13.93;2.97;;;;;;;;;;5077086;28;20687;-88
2024/03/15 02:35:06;;;;;;;16.23;2.70;;;;;;;;;;5077022;28;20221;-88
2024/03/15 02:37:36;;;;;;;17.93;3.40;;;;;;;;;;5077645;28;20190;-88
2024/03/15 02:40:03;;;;;;;11.83;3.23;;;;;;;;;;5060705;28;20198;-88
2024/03/15 02:42:31;;;;;;;12.37;2.40;;;;;;;;;;5077152;28;20221;-88
2024/03/15 02:44:58;;;;;;;19.87;3.70;;;;;;;;;;5076649;28;20198;-88
2024/03/15 02:47:26;;;;;;;22.40;3.70;;;;;;;;;;5067194;28;20274;-88
2024/03/15 02:49:55;;;;;;;17.63;3.27;;;;;;;;;;5062928;28;20588;-88
2024/03/15 02:52:23;;;;;;;23.80;3.33;;;;;;;;;;5057518;28;20569;-89
2024/03/15 02:54:50;;;;;;;16.80;3.10;;;;;;;;;;5056821;28;20319;-88
2024/03/15 02:57:18;;;;;;;20.50;3.37;;;;;;;;;;5056708;28;20310;-88
2024/03/15 02:59:45;;;;;;;24.30;4.00;;;;;;;;;;5056590;28;20199;-88
2024/03/15 03:02:14;;;;;;;23.10;4.07;;;;;;;;;;5056710;28;20231;-88
2024/03/15 03:04:41;;;;;;;16.57;3.20;;;;;;;;;;5056771;28;20285;-88
2024/03/15 03:07:09;;;;;;;17.50;3.57;;;;;;;;;;5056277;28;20215;-88
2024/03/15 03:09:37;;;;;;;22.73;3.50;;;;;;;;;;5056868;28;20203;-87
2024/03/15 03:12:04;;;;;;;25.87;3.53;;;;;;;;;;5057471;28;20198;-88
2024/03/15 03:14:33;;;;;;;23.57;3.70;;;;;;;;;;5096352;28;20355;-87
2024/03/15 03:17:01;;;;;;;20.50;3.67;;;;;;;;;;5096866;28;20221;-88
2024/03/15 03:19:28;;;;;;;24.77;3.30;;;;;;;;;;5096870;28;20276;-88
2024/03/15 03:21:56;;;;;;;30.50;4.20;;;;;;;;;;5096432;28;20227;-88
2024/03/15 03:24:23;;;;;;;21.00;4.23;;;;;;;;;;5096543;28;20204;-88
2024/03/15 03:26:51;;;;;;;22.53;4.20;;;;;;;;;;5096658;28;20901;-88
2024/03/15 03:29:19;;;;;;;22.40;3.87;;;;;;;;;;5096668;28;20198;-88
2024/03/15 03:31:46;;;;;;;24.87;4.03;;;;;;;;;;5096439;28;20202;-87
2024/03/15 03:34:14;;;;;;;24.57;3.93;;;;;;;;;;5096369;28;20289;-88
2024/03/15 03:36:42;;;;;;;24.40;4.83;;;;;;;;;;5096285;28;20726;-89
2024/03/15 03:39:10;;;;;;;21.37;3.93;;;;;;;;;;5096786;28;20198;-88
2024/03/15 03:41:37;;;;;;;24.40;4.67;;;;;;;;;;5096591;28;20277;-88
2024/03/15 03:44:05;;;;;;;20.73;3.80;;;;;;;;;;5096250;28;20272;-88
2024/03/15 03:46:33;;;;;;;28.83;4.37;;;;;;;;;;5096255;28;20248;-88
2024/03/15 03:49:01;;;;;;;29.87;5.10;;;;;;;;;;5095516;28;20221;-88
2024/03/15 03:51:28;;;;;;;26.37;4.90;;;;;;;;;;5090299;28;20273;-89
2024/03/15 03:53:56;;;;;;;21.33;4.03;;;;;;;;;;5075821;28;20226;-88
2024/03/15 03:56:24;;;;;;;27.73;4.40;;;;;;;;;;5075572;28;20237;-89
2024/03/15 03:58:52;;;;;;;27.43;5.10;;;;;;;;;;5076030;28;20186;-88
2024/03/15 04:01:20;;;;;;;26.47;4.83;;;;;;;;;;5075945;28;20206;-88
2024/03/15 04:03:48;;;;;;;32.40;4.97;;;;;;;;;;5075668;28;20493;-88
2024/03/15 04:06:15;;;;;;;21.40;4.03;;;;;;;;;;5075681;28;20194;-88
2024/03/15 04:08:42;;;;;;;30.57;4.20;;;;;;;;;;5075404;28;20230;-88
2024/03/15 04:11:10;;;;;;;25.23;4.23;;;;;;;;;;5075401;28;20262;-88
2024/03/15 04:13:38;;;;;;;26.43;4.03;;;;;;;;;;5075620;28;20310;-87
2024/03/15 04:16:06;;;;;;;27.03;4.80;;;;;;;;;;5075344;28;20222;-88
2024/03/15 04:18:34;;;;;;;25.47;4.03;;;;;;;;;;5075387;28;20194;-87
2024/03/15 04:21:01;;;;;;;22.20;3.77;;;;;;;;;;5075574;28;20190;-87
2024/03/15 04:23:30;;;;;;;23.87;4.00;;;;;;;;;;5075388;28;21048;-87
2024/03/15 04:25:57;;;;;;;20.70;3.63;;;;;;;;;;5075351;28;20190;-89
2024/03/15 04:28:25;;;;;;;22.53;3.80;;;;;;;;;;5074455;28;20653;-88
2024/03/15 04:30:53;;;;;;;21.57;3.80;;;;;;;;;;5075103;28;20201;-88
2024/03/15 04:33:22;;;;;;;22.33;3.33;;;;;;;;;;5075440;28;20221;-88
2024/03/15 04:35:51;;;;;;;19.47;3.50;;;;;;;;;;5075294;28;20310;-88
2024/03/15 04:38:18;;;;;;;15.13;3.13;;;;;;;;;;5074551;28;20201;-87
2024/03/15 04:40:46;;;;;;;16.23;3.67;;;;;;;;;;5074421;28;20730;-87
2024/03/15 04:43:14;;;;;;;21.97;3.27;;;;;;;;;;5074801;28;20194;-88
2024/03/15 04:45:41;;;;;;;23.23;3.77;;;;;;;;;;5075444;28;20571;-87
2024/03/15 04:48:09;;;;;;;19.50;4.00;;;;;;;;;;5074994;28;20205;-88
2024/03/15 04:50:36;;;;;;;20.13;3.83;;;;;;;;;;5074902;28;20638;-88
2024/03/15 04:53:04;;;;;;;21.27;4.13;;;;;;;;;;5075128;28;20202;-89
2024/03/15 04:55:33;;;;;;;20.53;3.70;;;;;;;;;;5074412;28;20230;-88
2024/03/15 04:58:00;;;;;;;21.03;4.10;;;;;;;;;;5075033;28;20190;-88
2024/03/15 05:00:28;;;;;;;19.33;4.07;;;;;;;;;;5078387;28;20194;-88
2024/03/15 05:02:55;;;;;;;24.57;3.70;;;;;;;;;;5078811;28;20668;-88
2024/03/15 05:05:23;;;;;;;21.03;3.40;;;;;;;;;;5078994;28;20327;-88
2024/03/15 05:07:53;;;;;;;22.53;4.13;;;;;;;;;;5078775;28;20195;-89
2024/03/15 05:10:20;;;;;;;25.77;4.80;;;;;;;;;;5078673;28;20190;-88
2024/03/15 05:12:49;;;;;;;26.10;3.87;;;;;;;;;;5078539;28;20281;-88
2024/03/15 05:15:16;;;;;;;22.07;4.60;;;;;;;;;;5078926;28;20202;-87
2024/03/15 05:17:44;;;;;;;29.07;4.70;;;;;;;;;;5078556;28;20226;-88
2024/03/15 05:20:12;;;;;;;22.53;3.90;;;;;;;;;;5079011;28;20285;-87
2024/03/15 05:22:40;;;;;;;22.80;3.93;;;;;;;;;;5078135;28;20714;-88
2024/03/15 05:25:08;;;;;;;22.77;4.20;;;;;;;;;;5078216;28;20198;-88
2024/03/15 05:27:35;;;;;;;25.83;4.20;;;;;;;;;;5078480;28;20289;-88
2024/03/15 05:30:04;;;;;;;23.53;5.37;;;;;;;;;;5078140;28;20281;-87
2024/03/15 05:32:32;;;;;;;28.13;4.50;;;;;;;;;;5078606;28;20285;-88
2024/03/15 05:34:59;;;;;;;22.87;4.07;;;;;;;;;;5078352;28;20256;-88
2024/03/15 05:37:27;;;;;;;23.50;3.67;;;;;;;;;;5078554;28;20660;-88
2024/03/15 05:39:55;;;;;;;25.87;4.63;;;;;;;;;;5078262;28;20777;-88
2024/03/15 05:42:25;;;;;;;26.83;4.23;;;;;;;;;;5078265;28;20273;-88
2024/03/15 05:44:53;;;;;;;28.13;4.90;;;;;;;;;;5078282;28;20194;-88
2024/03/15 05:47:20;;;;;;;30.97;4.90;;;;;;;;;;5078203;28;20210;-88
2024/03/15 05:49:47;;;;;;;25.03;4.27;;;;;;;;;;5077836;28;20222;-87
2024/03/15 05:52:14;;;;;;;27.53;4.50;;;;;;;;;;5077749;28;20194;-87
2024/03/15 05:54:42;;;;;;;29.60;4.20;;;;;;;;;;5077289;28;20234;-87
2024/03/15 05:57:09;;;;;;;26.00;4.37;;;;;;;;;;5077236;28;20214;-86
2024/03/15 05:59:37;;;;;;;26.30;4.07;;;;;;;;;;5060746;28;20573;-88
2024/03/15 06:02:05;;;;;;;24.40;5.33;;;;;;;;;;5061218;28;20281;-88
2024/03/15 06:04:32;;;;;;;30.93;4.77;;;;;;;;;;5077645;28;20284;-87
2024/03/15 06:07:00;;;;;;;29.00;4.47;;;;;;;;;;5076908;28;20721;-88
2024/03/15 06:09:29;;;;;;;26.33;4.70;;;;;;;;;;5078178;28;20206;-90
2024/03/15 06:11:57;;;;;;;33.20;4.97;;;;;;;;;;5077123;28;20644;-89
2024/03/15 06:14:25;;;;;;;25.17;4.60;;;;;;;;;;5079422;28;20201;-89
2024/03/15 06:16:52;;;;;;;31.90;5.30;;;;;;;;;;5077873;28;20214;-89
2024/03/15 06:19:22;;;;;;;24.53;4.03;;;;;;;;;;5077737;28;20336;-88
2024/03/15 06:21:49;;;;;;;27.13;4.20;;;;;;;;;;5077800;28;20193;-88
2024/03/15 06:24:19;;;;;;;20.50;3.90;;;;;;;;;;5077637;28;20689;-89
2024/03/15 06:26:47;;;;;;;27.20;4.13;;;;;;;;;;5077890;28;20198;-91
2024/03/15 06:29:18;;;;;;;32.93;4.73;;;;;;;;;;5076361;28;20238;-87
2024/03/15 06:31:48;;;;;;;31.70;5.17;;;;;;;;;;5077076;28;20195;-83
2024/03/15 06:34:21;;;;;;;23.67;4.40;;;;;;;;;;5075996;28;20209;-85
2024/03/15 06:36:53;;;;;;;26.47;4.43;;;;;;;;;;5075562;28;20233;-84
2024/03/15 06:39:25;;;;;;;24.03;3.87;;;;;;;;;;5059161;28;20199;-83
2024/03/15 06:41:53;;;;;;;25.77;4.93;;;;;;;;;;5073718;28;20195;-85
2024/03/15 06:44:23;;;;;;;28.90;4.63;;;;;;;;;;5076018;28;20194;-86
2024/03/15 06:47:15;;;;;;;23.70;4.03;;;;;;;;;;5075971;28;20277;-87
2024/03/15 06:49:48;;;;;;;27.13;4.53;;;;;;;;;;5079314;28;20620;-85
2024/03/15 06:52:34;;;;;;;24.33;4.77;;;;;;;;;;5076217;28;20190;-86
2024/03/15 06:55:03;;;;;;;27.70;4.50;;;;;;;;;;5078407;28;20237;-85
2024/03/15 06:57:31;;;;;;;28.93;4.57;;;;;;;;;;5075583;28;20283;-85
2024/03/15 06:59:58;;;;;;;24.27;4.93;;;;;;;;;;5075359;28;20198;-85
2024/03/15 07:02:25;;;;;;;29.70;4.30;;;;;;;;;;5075207;28;20285;-85
2024/03/15 07:04:53;;;;;;;28.60;4.47;;;;;;;;;;5074948;28;20226;-86
2024/03/15 07:07:20;;;;;;;25.20;4.27;;;;;;;;;;5075250;28;20282;-85
2024/03/15 07:09:48;;;;;;;27.23;4.53;;;;;;;;;;5075398;28;20202;-85
2024/03/15 07:12:15;;;;;;;23.63;4.83;;;;;;;;;;5075390;28;20665;-86
2024/03/15 07:14:43;;;;;;;26.53;3.93;;;;;;;;;;5075488;28;20194;-85
2024/03/15 07:17:10;;;;;;;26.97;4.90;;;;;;;;;;5074959;28;20719;-85
2024/03/15 07:19:38;;;;;;;25.33;4.73;;;;;;;;;;5074220;28;20286;-85
2024/03/15 07:22:05;;;;;;;24.07;4.07;;;;;;;;;;5074914;28;20199;-86
2024/03/15 07:24:36;;;;;;;28.90;4.43;;;;;;;;;;5074948;28;20290;-85
2024/03/15 07:27:04;;;;;;;23.50;4.00;;;;;;;;;;5075706;28;20209;-85
2024/03/15 07:29:32;;;;;;;19.37;3.87;;;;;;;;;;5075038;28;20201;-86
2024/03/15 07:32:01;;;;;;;22.60;4.67;;;;;;;;;;5075107;28;20237;-85
2024/03/15 07:34:28;;;;;;;23.23;4.43;;;;;;;;;;5074570;28;20203;-85
2024/03/15 07:36:57;;;;;;;26.73;4.40;;;;;;;;;;5074782;28;20283;-85
2024/03/15 07:39:28;;;;;;;25.53;4.03;;;;;;;;;;5074898;28;20699;-86
2024/03/15 07:41:59;;;;;;;24.40;4.47;;;;;;;;;;5075332;28;20198;-85
2024/03/15 07:44:27;;;;;;;30.60;4.07;;;;;;;;;;5074805;28;20247;-87
2024/03/15 07:46:56;;;;;;;24.63;4.30;;;;;;;;;;5074850;28;20201;-85
2024/03/15 07:49:24;;;;;;;24.13;4.30;;;;;;;;;;5074202;28;20206;-86
2024/03/15 07:51:51;;;;;;;23.83;3.95;;;;;;;;;;5074454;28;20205;-86
2024/03/15 07:54:21;;;;;;;23.93;5.40;;;;;;;;;;5074355;28;20249;-86
2024/03/15 07:56:48;;;;;;;29.77;4.03;;;;;;;;;;5074845;28;20238;-86
2024/03/15 07:59:18;;;;;;;24.67;4.40;;;;;;;;;;5074410;28;20241;-85
2024/03/15 08:01:45;;;;;;;27.50;4.67;;;;;;;;;;5074138;28;20198;-85
2024/03/15 08:04:14;;;;;;;21.87;4.67;;;;;;;;;;5074169;28;20202;-85
2024/03/15 08:06:41;;;;;;;24.00;4.37;;;;;;;;;;5074254;28;20199;-86
2024/03/15 08:09:11;;;;;;;21.60;4.27;;;;;;;;;;5074457;28;20202;-86
2024/03/15 08:11:38;;;;;;;18.37;3.43;;;;;;;;;;5074913;28;20716;-86
2024/03/15 08:14:06;;;;;;;24.57;4.27;;;;;;;;;;5091789;28;20290;-86
2024/03/15 08:16:37;;;;;;;21.93;3.97;;;;;;;;;;5094333;28;20197;-86
2024/03/15 08:19:06;;;;;;;21.97;4.10;;;;;;;;;;5094884;28;20225;-85
2024/03/15 08:21:34;;;;;;;27.83;4.40;;;;;;;;;;5094625;28;20960;-85
2024/03/15 08:24:04;;;;;;;23.60;5.93;;;;;;;;;;5094709;28;20190;-85
2024/03/15 08:26:31;;;;;;;22.43;4.03;;;;;;;;;;5094510;28;20198;-86
2024/03/15 08:29:00;;;;;;;18.53;3.83;;;;;;;;;;5094527;28;20205;-86
2024/03/15 08:31:27;;;;;;;19.07;3.57;;;;;;;;;;5094244;28;20663;-86
2024/03/15 08:33:54;;;;;;;21.63;3.60;;;;;;;;;;5093519;28;20640;-84
2024/03/15 08:36:23;;;;;;;19.30;3.93;;;;;;;;;;5093637;28;20194;-87
2024/03/15 08:38:51;;;;;;;17.03;3.80;;;;;;;;;;5094276;28;20234;-85
2024/03/15 08:41:18;;;;;;;12.93;2.93;;;;;;;;;;5093964;28;20281;-85
2024/03/15 08:43:45;;;;;;;16.93;3.73;;;;;;;;;;5094274;28;20296;-85
2024/03/15 08:46:13;;;;;;;13.97;2.90;;;;;;;;;;5079772;28;20198;-86
2024/03/15 08:48:42;;;;;;;11.83;2.67;;;;;;;;;;5073443;28;20198;-85
2024/03/15 08:51:09;;;;;;;12.10;3.00;;;;;;;;;;5073878;28;20234;-85
2024/03/15 08:53:37;;;;;;;11.83;2.90;;;;;;;;;;5074125;28;20202;-85
2024/03/15 08:56:04;;;;;;;12.50;2.60;;;;;;;;;;5073678;28;20282;-85
2024/03/15 08:58:31;;;;;;;15.80;2.83;;;;;;;;;;5073719;28;20318;-85
2024/03/15 09:00:59;;;;;;;14.07;3.37;;;;;;;;;;5073468;28;20245;-85
2024/03/15 09:03:26;;;;;;;18.53;2.80;;;;;;;;;;5073743;28;20233;-86
2024/03/15 09:05:54;;;;;;;15.20;3.20;;;;;;;;;;5073971;28;20195;-86
2024/03/15 09:08:21;;;;;;;14.47;3.37;;;;;;;;;;5073699;28;20222;-85
2024/03/15 09:10:48;;;;;;;15.43;2.90;;;;;;;;;;5074137;28;20290;-86
2024/03/15 09:13:17;;;;;;;17.43;4.30;;;;;;;;;;5073371;28;20289;-86
2024/03/15 09:15:44;;;;;;;16.03;4.23;;;;;;;;;;5073760;28;20202;-86
2024/03/15 09:18:11;;;;;;;14.43;3.80;;;;;;;;;;5073680;28;20696;-85
2024/03/15 09:20:42;;;;;;;12.50;2.80;;;;;;;;;;5073544;28;20282;-87
2024/03/15 09:23:12;;;;;;;16.90;3.37;;;;;;;;;;5074215;28;20230;-84
2024/03/15 09:25:39;;;;;;;14.65;3.13;;;;;;;;;;5074326;28;20186;-85
2024/03/15 09:28:09;;;;;;;14.80;3.15;;;;;;;;;;5073738;28;20293;-86
2024/03/15 09:30:42;;;;;;;20.50;3.42;;;;;;;;;;5073605;28;20194;-86
2024/03/15 09:33:11;;;;;;;15.50;3.35;;;;;;;;;;5074079;28;20199;-85
2024/03/15 09:35:40;;;;;;;14.60;2.90;;;;;;;;;;5073917;28;20586;-86
2024/03/15 09:38:08;;;;;;;17.02;3.47;;;;;;;;;;5073714;28;20226;-86
2024/03/15 09:40:35;;;;;;;15.50;3.45;;;;;;;;;;5073178;28;20202;-86
2024/03/15 09:43:03;;;;;;;14.35;3.20;;;;;;;;;;5073599;28;20195;-86
2024/03/15 09:45:30;;;;;;;16.65;3.63;;;;;;;;;;5073325;28;20660;-86
2024/03/15 09:47:58;;;;;;;16.30;3.45;;;;;;;;;;5076914;28;20222;-86
2024/03/15 09:50:25;;;;;;;14.68;3.17;;;;;;;;;;5076830;28;20768;-87
2024/03/15 09:52:52;;;;;;;20.27;4.00;;;;;;;;;;5076475;28;20580;-87
2024/03/15 09:55:21;;;;;;;16.48;3.47;;;;;;;;;;5076646;28;20261;-86
2024/03/15 09:57:49;;;;;;;16.60;3.65;;;;;;;;;;5076676;28;20240;-86
2024/03/15 10:00:17;;;;;;;18.02;3.53;;;;;;;;;;5076706;28;20600;-87
2024/03/15 10:02:44;;;;;;;18.15;3.05;;;;;;;;;;5076713;28;20237;-85
2024/03/15 10:05:12;;;;;;;18.25;3.65;;;;;;;;;;5076948;28;20291;-85
2024/03/15 10:07:39;;;;;;;16.92;3.60;;;;;;;;;;5077105;28;20220;-86
2024/03/15 10:10:10;;;;;;;17.45;3.67;;;;;;;;;;5076685;28;20202;-86
2024/03/15 10:12:38;;;;;;;19.38;3.63;;;;;;;;;;5076447;28;20252;-87
2024/03/15 10:15:08;;;;;;;16.83;3.25;;;;;;;;;;5076679;28;20187;-85
2024/03/15 10:17:36;;;;;;;21.48;3.97;;;;;;;;;;5076832;28;20708;-86
2024/03/15 10:20:08;;;;;;;16.17;3.20;;;;;;;;;;5076459;28;20198;-86
2024/03/15 10:22:36;;;;;;;18.17;3.85;;;;;;;;;;5060193;28;20198;-85
2024/03/15 10:25:03;;;;;;;19.73;3.53;;;;;;;;;;5076224;28;20372;-85
2024/03/15 10:27:31;;;;;;;16.80;4.00;;;;;;;;;;5076260;28;20786;-85
2024/03/15 10:29:58;;;;;;;21.17;3.95;;;;;;;;;;5076566;28;20564;-85
2024/03/15 10:32:26;;;;;;;17.52;3.70;;;;;;;;;;5076388;28;20285;-86
2024/03/15 10:34:54;;;;;;;22.08;4.13;;;;;;;;;;5076330;28;20707;-86
2024/03/15 10:37:22;;;;;;;18.77;3.53;;;;;;;;;;5076204;28;20203;-87
2024/03/15 10:39:50;;;;;;;14.65;3.13;;;;;;;;;;5076275;28;20202;-87
2024/03/15 10:42:18;;;;;;;15.45;3.70;;;;;;;;;;5076227;28;20243;-85
2024/03/15 10:44:45;;;;;;;18.00;3.80;;;;;;;;;;5075883;28;20194;-87
2024/03/15 10:47:13;;;;;;;15.55;3.50;;;;;;;;;;5075711;28;20233;-87
2024/03/15 10:49:40;;;;;;;18.30;3.90;;;;;;;;;;5059350;28;20194;-87
2024/03/15 10:52:08;;;;;;;18.38;4.07;;;;;;;;;;5076019;28;20229;-86
2024/03/15 10:54:36;;;;;;;19.20;3.45;;;;;;;;;;5075804;28;20315;-87
2024/03/15 10:57:03;;;;;;;18.98;4.22;;;;;;;;;;5074897;28;20299;-86
2024/03/15 10:59:31;;;;;;;18.00;4.20;;;;;;;;;;5075464;28;20265;-87
2024/03/15 11:01:58;;;;;;;12.43;3.30;;;;;;;;;;5075946;28;20614;-86
2024/03/15 11:04:26;;;;;;;16.80;3.60;;;;;;;;;;5076146;28;20273;-86
2024/03/15 11:06:53;;;;;;;19.70;3.58;;;;;;;;;;5075901;28;20191;-86
2024/03/15 11:09:22;;;;;;;22.83;4.03;;;;;;;;;;5075707;28;20281;-85
2024/03/15 11:12:02;;;;;;;15.38;3.60;;;;;;;;;;5075367;28;20203;-84
2024/03/15 11:14:34;;;;;;;14.90;3.35;;;;;;;;;;5054735;28;20218;-83
2024/03/15 11:17:05;;;;;;;17.90;3.05;;;;;;;;;;5054825;28;20206;-84
2024/03/15 11:19:41;;;;;;;15.35;3.42;;;;;;;;;;5055801;28;20606;-85
2024/03/15 11:22:11;;;;;;;18.88;3.35;;;;;;;;;;5054833;28;20203;-85
2024/03/15 11:24:42;;;;;;;13.45;3.38;;;;;;;;;;5054845;28;20190;-85
2024/03/15 11:27:13;;;;;;;13.88;3.13;;;;;;;;;;5054492;28;20222;-85
2024/03/15 11:29:40;;;;;;;21.98;3.80;;;;;;;;;;5054878;28;20286;-86
2024/03/15 11:32:10;;;;;;;16.13;3.25;;;;;;;;;;5054725;28;20203;-85
2024/03/15 11:34:38;;;;;;;15.48;3.60;;;;;;;;;;5055155;28;20204;-86
2024/03/15 11:37:05;;;;;;;16.83;3.28;;;;;;;;;;5054797;28;20578;-86
2024/03/15 11:39:32;;;;;;;21.08;4.35;;;;;;;;;;5054479;28;20226;-85
2024/03/15 11:42:03;;;;;;;17.40;3.42;;;;;;;;;;5054338;28;20215;-86
2024/03/15 11:44:30;;;;;;;13.85;3.00;;;;;;;;;;5054835;28;20199;-86
2024/03/15 11:46:58;;;;;;;15.02;2.83;;;;;;;;;;5054767;28;20194;-87
2024/03/15 11:49:25;;;;;;;15.23;2.92;;;;;;;;;;5054421;28;20206;-86
2024/03/15 11:51:57;;;;;;;13.15;2.78;;;;;;;;;;5054856;28;20289;-87
2024/03/15 11:54:24;;;;;;;11.73;2.58;;;;;;;;;;5053897;28;20647;-86
2024/03/15 11:56:57;;;;;;;17.23;3.08;;;;;;;;;;5054656;28;20289;-85
2024/03/15 11:59:26;;;;;;;16.05;3.22;;;;;;;;;;5055563;28;20238;-86
2024/03/15 12:01:53;;;;;;;17.25;2.80;;;;;;;;;;5054424;28;20553;-87
2024/03/15 12:04:21;;;;;;;14.65;3.65;;;;;;;;;;5054004;28;20240;-86
2024/03/15 12:06:49;;;;;;;14.82;2.50;;;;;;;;;;5054374;28;20282;-85
2024/03/15 12:09:16;;;;;;;12.52;3.13;;;;;;;;;;5053453;28;20649;-85
2024/03/15 12:11:44;;;;;;;12.90;2.38;;;;;;;;;;5054021;28;20195;-84
2024/03/15 12:14:14;;;;;;;13.07;3.15;;;;;;;;;;5071977;28;20241;-85
2024/03/15 12:16:45;;;;;;;12.05;4.38;;;;;;;;;;5073928;28;20751;-84
2024/03/15 12:19:15;;;;;;;14.73;4.07;;;;;;;;;;5073734;28;20240;-85
2024/03/15 12:21:42;;;;;;;15.40;5.55;;;;;;;;;;5073847;28;20190;-86
2024/03/15 12:24:10;;;;;;;17.95;5.72;;;;;;;;;;5074099;28;20277;-85
2024/03/15 12:26:38;;;;;;;13.98;4.53;;;;;;;;;;5073804;28;20281;-85
2024/03/15 12:29:05;;;;;;;23.17;4.18;;;;;;;;;;5074253;28;20225;-86
2024/03/15 12:31:36;;;;;;;18.27;3.58;;;;;;;;;;5074204;28;20259;-86
2024/03/15 12:34:03;;;;;;;16.75;3.63;;;;;;;;;;5074620;28;20205;-86
2024/03/15 12:36:31;;;;;;;16.98;3.97;;;;;;;;;;5074060;28;20286;-86
2024/03/15 12:38:58;;;;;;;20.75;3.92;;;;;;;;;;5073295;28;20798;-85
2024/03/15 12:41:26;;;;;;;14.98;3.53;;;;;;;;;;5074007;28;20736;-86
2024/03/15 12:43:53;;;;;;;16.98;3.67;;;;;;;;;;5073756;28;20277;-85
2024/03/15 12:46:20;;;;;;;16.67;3.40;;;;;;;;;;5073982;28;20286;-85
2024/03/15 12:48:48;;;;;;;19.17;3.95;;;;;;;;;;5073928;28;20198;-85
2024/03/15 12:51:15;;;;;;;15.35;3.47;;;;;;;;;;5073936;28;20280;-86
2024/03/15 12:53:42;;;;;;;14.18;3.22;;;;;;;;;;5073325;28;20285;-85
2024/03/15 12:56:10;;;;;;;14.88;3.30;;;;;;;;;;5073274;28;20260;-86
2024/03/15 12:58:37;;;;;;;16.80;3.58;;;;;;;;;;5073939;28;20312;-86
2024/03/15 13:01:04;;;;;;;17.90;3.53;;;;;;;;;;5074190;28;20233;-84
2024/03/15 13:03:33;;;;;;;17.48;3.38;;;;;;;;;;5073957;28;20282;-86
2024/03/15 13:06:00;;;;;;;15.77;3.22;;;;;;;;;;5073940;28;20198;-86
2024/03/15 13:08:28;;;;;;;15.25;2.92;;;;;;;;;;5073279;28;20233;-85
2024/03/15 13:10:56;;;;;;;13.90;3.10;;;;;;;;;;5073837;28;20289;-86
2024/03/15 13:13:23;;;;;;;16.88;3.90;;;;;;;;;;5073455;28;20230;-87
2024/03/15 13:15:50;;;;;;;15.85;3.95;;;;;;;;;;5073758;28;20195;-85
2024/03/15 13:18:18;;;;;;;16.63;4.00;;;;;;;;;;5073866;28;20275;-85
2024/03/15 13:20:46;;;;;;;15.05;3.38;;;;;;;;;;5075836;28;20259;-86
2024/03/15 13:23:13;;;;;;;13.13;3.10;;;;;;;;;;5077350;28;20200;-85
2024/03/15 13:25:41;;;;;;;15.50;2.83;;;;;;;;;;5077527;28;20241;-86
2024/03/15 13:28:08;;;;;;;13.68;2.63;;;;;;;;;;5077690;28;20190;-86
2024/03/15 13:30:36;;;;;;;13.27;2.78;;;;;;;;;;5077490;28;20230;-86
2024/03/15 13:33:04;;;;;;;10.60;2.72;;;;;;;;;;5077509;28;20297;-86
2024/03/15 13:35:31;;;;;;;12.90;2.80;;;;;;;;;;5077008;28;20669;-86
2024/03/15 13:37:58;;;;;;;13.75;2.70;;;;;;;;;;5060331;28;20206;-86
2024/03/15 13:40:26;;;;;;;13.43;3.15;;;;;;;;;;5077250;28;20659;-85
2024/03/15 13:42:53;;;;;;;8.70;2.28;;;;;;;;;;5077384;28;20222;-87
2024/03/15 13:45:22;;;;;;;12.27;2.80;;;;;;;;;;5077536;28;20628;-86
2024/03/15 13:47:50;;;;;;;11.63;2.67;;;;;;;;;;5077368;28;20195;-85
2024/03/15 13:50:19;;;;;;;10.95;2.80;;;;;;;;;;5077306;28;20197;-86
2024/03/15 13:52:46;;;;;;;17.35;2.97;;;;;;;;;;5076961;28;20209;-87
2024/03/15 13:55:13;;;;;;;12.18;3.03;;;;;;;;;;5076940;28;20254;-86
2024/03/15 13:57:41;;;;;;;13.57;2.90;;;;;;;;;;5077106;28;20277;-86
2024/03/15 14:00:31;;;;;;;12.88;2.38;;;;;;;;;;5077365;28;20250;-87
2024/03/15 14:03:01;;;;;;;13.20;2.83;;;;;;;;;;5080394;28;20256;-87
2024/03/15 14:05:29;;;;;;;12.15;2.80;;;;;;;;;;5076898;28;20205;-86
2024/03/15 14:07:58;;;;;;;16.23;3.05;;;;;;;;;;5076875;28;20222;-86
2024/03/15 14:10:29;;;;;;;10.02;2.42;;;;;;;;;;5077239;28;20214;-85
2024/03/15 14:12:56;;;;;;;12.82;2.63;;;;;;;;;;5085596;28;20205;-88
2024/03/15 14:15:24;;;;;;;13.90;3.05;;;;;;;;;;5097351;28;20229;-87
2024/03/15 14:17:51;;;;;;;10.40;2.97;;;;;;;;;;5097036;28;20695;-85
2024/03/15 14:20:19;;;;;;;12.45;2.88;;;;;;;;;;5096459;28;20229;-87
2024/03/15 14:22:47;;;;;;;10.35;2.42;;;;;;;;;;5097019;28;20686;-87
2024/03/15 14:25:16;;;;;;;13.10;2.85;;;;;;;;;;5096687;28;20225;-87
2024/03/15 14:27:48;;;;;;;14.10;2.92;;;;;;;;;;5097174;28;20198;-85
2024/03/15 14:30:16;;;;;;;15.48;3.20;;;;;;;;;;5097633;28;20603;-85
2024/03/15 14:32:43;;;;;;;16.17;3.42;;;;;;;;;;5095946;28;20686;-87
2024/03/15 14:35:12;;;;;;;11.95;2.53;;;;;;;;;;5095814;28;20667;-86
2024/03/15 14:37:39;;;;;;;10.32;2.58;;;;;;;;;;5097242;28;20190;-87